createdAt,value
2022-11-04T00:00:05.491Z,24.89
2022-11-04T00:00:37.023Z,24.90
2022-11-04T00:01:08.510Z,24.87
2022-11-04T00:01:39.960Z,24.87
2022-11-04T00:02:11.474Z,24.84
2022-11-04T00:02:43.043Z,24.86
2022-11-04T00:03:14.611Z,24.85
2022-11-04T00:03:45.992Z,24.84
2022-11-04T00:04:17.413Z,24.87
2022-11-04T00:04:48.817Z,24.88
2022-11-04T00:05:20.291Z,24.88
2022-11-04T00:05:51.720Z,24.89
2022-11-04T00:06:23.176Z,24.85
2022-11-04T00:06:54.545Z,24.83
2022-11-04T00:07:25.972Z,24.86
2022-11-04T00:07:57.469Z,24.89
2022-11-04T00:08:28.900Z,24.90
2022-11-04T00:09:00.343Z,24.89
2022-11-04T00:09:31.737Z,24.82
2022-11-04T00:10:03.200Z,24.82
2022-11-04T00:10:34.596Z,24.80
2022-11-04T00:11:06.002Z,24.83
2022-11-04T00:11:37.410Z,24.84
2022-11-04T00:12:08.799Z,24.84
2022-11-04T00:12:40.230Z,24.81
2022-11-04T00:13:11.711Z,24.82
2022-11-04T00:13:43.131Z,24.84
2022-11-04T00:14:14.583Z,24.85
2022-11-04T00:14:46.021Z,24.86
2022-11-04T00:15:17.568Z,24.86
2022-11-04T00:15:48.955Z,24.85
2022-11-04T00:16:20.367Z,24.86
2022-11-04T00:16:51.898Z,24.85
2022-11-04T00:17:23.334Z,24.86
2022-11-04T00:17:54.742Z,24.87
2022-11-04T00:18:26.146Z,24.88
2022-11-04T00:18:57.564Z,24.88
2022-11-04T00:19:28.960Z,24.88
2022-11-04T00:20:00.438Z,24.90
2022-11-04T00:20:31.847Z,24.91
2022-11-04T00:21:03.311Z,24.91
2022-11-04T00:21:34.765Z,24.91
2022-11-04T00:22:06.202Z,24.89
2022-11-04T00:22:37.626Z,24.92
2022-11-04T00:23:09.410Z,24.91
2022-11-04T00:23:41.081Z,24.91
2022-11-04T00:24:12.512Z,24.92
2022-11-04T00:24:43.903Z,24.90
2022-11-04T00:25:15.436Z,24.89
2022-11-04T00:25:46.879Z,24.90
2022-11-04T00:26:18.355Z,24.90
2022-11-04T00:26:49.760Z,24.89
2022-11-04T00:27:21.150Z,24.89
2022-11-04T00:27:52.641Z,24.90
2022-11-04T00:28:24.026Z,24.90
2022-11-04T00:28:55.457Z,24.89
2022-11-04T00:29:26.896Z,24.89
2022-11-04T00:29:58.296Z,24.88
2022-11-04T00:30:29.747Z,24.89
2022-11-04T00:31:01.132Z,24.89
2022-11-04T00:31:32.519Z,24.87
2022-11-04T00:32:03.948Z,24.90
2022-11-04T00:32:35.396Z,24.89
2022-11-04T00:33:06.796Z,24.91
2022-11-04T00:33:38.220Z,24.92
2022-11-04T00:34:09.654Z,24.92
2022-11-04T00:34:41.089Z,24.91
2022-11-04T00:35:12.450Z,24.90
2022-11-04T00:35:43.989Z,24.89
2022-11-04T00:36:15.363Z,24.90
2022-11-04T00:36:46.722Z,24.89
2022-11-04T00:37:18.101Z,24.91
2022-11-04T00:37:49.501Z,24.91
2022-11-04T00:38:20.910Z,24.90
2022-11-04T00:38:52.299Z,24.90
2022-11-04T00:39:23.841Z,24.91
2022-11-04T00:39:55.278Z,24.95
2022-11-04T00:40:26.677Z,24.94
2022-11-04T00:40:58.171Z,24.90
2022-11-04T00:41:29.594Z,24.88
2022-11-04T00:42:01.066Z,24.90
2022-11-04T00:42:32.511Z,24.92
2022-11-04T00:43:03.914Z,24.87
2022-11-04T00:43:35.337Z,24.86
2022-11-04T00:44:06.842Z,24.82
2022-11-04T00:44:38.311Z,24.83
2022-11-04T00:45:09.714Z,24.86
2022-11-04T00:45:41.189Z,24.86
2022-11-04T00:46:12.617Z,24.83
2022-11-04T00:46:44.064Z,24.87
2022-11-04T00:47:15.437Z,24.85
2022-11-04T00:47:46.856Z,24.84
2022-11-04T00:48:18.249Z,24.83
2022-11-04T00:48:49.710Z,24.85
2022-11-04T00:49:21.101Z,24.85
2022-11-04T00:49:52.533Z,24.88
2022-11-04T00:50:23.915Z,24.88
2022-11-04T00:50:55.270Z,24.87
2022-11-04T00:51:26.789Z,24.85
2022-11-04T00:51:58.224Z,24.84
2022-11-04T00:52:29.658Z,24.86
2022-11-04T00:53:01.084Z,24.86
2022-11-04T00:53:32.513Z,24.87
2022-11-04T00:54:03.938Z,24.86
2022-11-04T00:54:35.346Z,24.85
2022-11-04T00:55:06.726Z,24.88
2022-11-04T00:55:38.223Z,24.89
2022-11-04T00:56:09.658Z,24.89
2022-11-04T00:56:41.073Z,24.87
2022-11-04T00:57:12.496Z,24.88
2022-11-04T00:57:43.977Z,24.87
2022-11-04T00:58:15.398Z,24.88
2022-11-04T00:58:46.816Z,24.90
2022-11-04T00:59:18.282Z,24.89
2022-11-04T00:59:49.706Z,24.89
2022-11-04T01:00:21.169Z,24.89
2022-11-04T01:00:52.631Z,24.89
2022-11-04T01:01:24.254Z,24.88
2022-11-04T01:01:55.763Z,24.88
2022-11-04T01:02:27.379Z,24.86
2022-11-04T01:02:58.837Z,24.85
2022-11-04T01:03:30.335Z,24.90
2022-11-04T01:04:01.851Z,24.92
2022-11-04T01:04:33.257Z,24.88
2022-11-04T01:05:04.655Z,24.89
2022-11-04T01:05:36.076Z,24.89
2022-11-04T01:06:07.751Z,24.88
2022-11-04T01:06:39.398Z,24.88
2022-11-04T01:07:10.931Z,24.89
2022-11-04T01:07:43.784Z,24.91
2022-11-04T01:08:15.552Z,24.92
2022-11-04T01:08:47.028Z,24.93
2022-11-04T01:09:18.435Z,24.87
2022-11-04T01:09:49.832Z,24.85
2022-11-04T01:10:21.243Z,24.84
2022-11-04T01:10:52.752Z,24.86
2022-11-04T01:11:24.285Z,24.89
2022-11-04T01:11:55.790Z,24.86
2022-11-04T01:12:27.233Z,24.80
2022-11-04T01:12:58.631Z,24.74
2022-11-04T01:13:30.112Z,24.74
2022-11-04T01:14:01.535Z,24.72
2022-11-04T01:14:32.977Z,24.73
2022-11-04T01:15:04.424Z,24.76
2022-11-04T01:15:35.810Z,24.78
2022-11-04T01:16:07.268Z,24.74
2022-11-04T01:16:38.752Z,24.78
2022-11-04T01:17:10.205Z,24.73
2022-11-04T01:17:41.592Z,24.76
2022-11-04T01:18:12.973Z,24.77
2022-11-04T01:18:44.406Z,24.80
2022-11-04T01:19:15.882Z,24.81
2022-11-04T01:19:47.240Z,24.80
2022-11-04T01:20:18.607Z,24.81
2022-11-04T01:20:50.026Z,24.79
2022-11-04T01:21:21.464Z,24.82
2022-11-04T01:21:52.973Z,24.81
2022-11-04T01:22:24.430Z,24.82
2022-11-04T01:22:55.818Z,24.84
2022-11-04T01:23:27.218Z,24.84
2022-11-04T01:23:58.701Z,24.84
2022-11-04T01:24:30.075Z,24.83
2022-11-04T01:25:01.496Z,24.76
2022-11-04T01:25:32.902Z,24.73
2022-11-04T01:26:04.304Z,24.67
2022-11-04T01:26:35.657Z,24.67
2022-11-04T01:27:07.150Z,24.63
2022-11-04T01:27:38.553Z,24.65
2022-11-04T01:28:10.193Z,24.65
2022-11-04T01:28:41.922Z,24.62
2022-11-04T01:29:13.364Z,24.57
2022-11-04T01:29:44.779Z,24.59
2022-11-04T01:30:16.149Z,24.57
2022-11-04T01:30:47.590Z,24.58
2022-11-04T01:31:19.048Z,24.61
2022-11-04T01:31:50.499Z,24.55
2022-11-04T01:32:21.961Z,24.58
2022-11-04T01:32:53.355Z,24.61
2022-11-04T01:33:24.779Z,24.62
2022-11-04T01:33:56.232Z,24.62
2022-11-04T01:34:27.640Z,24.62
2022-11-04T01:34:59.213Z,24.63
2022-11-04T01:35:30.644Z,24.64
2022-11-04T01:36:02.084Z,24.61
2022-11-04T01:36:33.536Z,24.63
2022-11-04T01:37:04.946Z,24.58
2022-11-04T01:37:36.406Z,24.56
2022-11-04T01:38:08.075Z,24.56
2022-11-04T01:38:39.647Z,24.57
2022-11-04T01:39:11.142Z,24.55
2022-11-04T01:39:42.545Z,24.51
2022-11-04T01:40:13.933Z,24.57
2022-11-04T01:40:45.362Z,24.56
2022-11-04T01:41:16.773Z,24.60
2022-11-04T01:41:48.195Z,24.65
2022-11-04T01:42:19.674Z,24.68
2022-11-04T01:42:51.112Z,24.70
2022-11-04T01:43:22.521Z,24.69
2022-11-04T01:43:53.999Z,24.71
2022-11-04T01:44:25.412Z,24.72
2022-11-04T01:44:56.849Z,24.70
2022-11-04T01:45:28.289Z,24.69
2022-11-04T01:45:59.732Z,24.67
2022-11-04T01:46:31.152Z,24.62
2022-11-04T01:47:02.656Z,24.63
2022-11-04T01:47:34.085Z,24.61
2022-11-04T01:48:05.518Z,24.59
2022-11-04T01:48:36.904Z,24.62
2022-11-04T01:49:08.292Z,24.60
2022-11-04T01:49:43.271Z,24.60
2022-11-04T01:50:15.237Z,24.56
2022-11-04T01:50:46.668Z,24.59
2022-11-04T01:51:18.105Z,24.57
2022-11-04T01:51:49.508Z,24.59
2022-11-04T01:52:20.886Z,24.58
2022-11-04T01:52:52.347Z,24.59
2022-11-04T01:53:23.774Z,24.60
2022-11-04T01:53:55.168Z,24.62
2022-11-04T01:54:26.557Z,24.62
2022-11-04T01:54:58.000Z,24.61
2022-11-04T01:55:29.432Z,24.59
2022-11-04T01:56:00.864Z,24.61
2022-11-04T01:56:32.272Z,24.60
2022-11-04T01:57:03.753Z,24.58
2022-11-04T01:57:35.170Z,24.62
2022-11-04T01:58:06.594Z,24.66
2022-11-04T01:58:38.034Z,24.63
2022-11-04T01:59:09.405Z,24.62
2022-11-04T01:59:40.820Z,24.65
2022-11-04T02:00:12.216Z,24.63
2022-11-04T02:00:43.631Z,24.61
2022-11-04T02:01:15.235Z,24.63
2022-11-04T02:01:46.927Z,24.63
2022-11-04T02:02:18.546Z,24.63
2022-11-04T02:02:50.058Z,24.65
2022-11-04T02:03:21.468Z,24.63
2022-11-04T02:03:52.866Z,24.61
2022-11-04T02:04:24.283Z,24.62
2022-11-04T02:04:55.698Z,24.61
2022-11-04T02:05:27.158Z,24.58
2022-11-04T02:05:58.571Z,24.61
2022-11-04T02:06:30.049Z,24.66
2022-11-04T02:07:01.536Z,24.65
2022-11-04T02:07:33.561Z,24.64
2022-11-04T02:08:05.042Z,24.66
2022-11-04T02:08:36.487Z,24.64
2022-11-04T02:09:39.347Z,24.62
2022-11-04T02:10:10.853Z,24.61
2022-11-04T02:10:42.271Z,24.61
2022-11-04T02:11:13.771Z,24.68
2022-11-04T02:11:45.208Z,24.66
2022-11-04T02:12:16.659Z,24.64
2022-11-04T02:12:48.137Z,24.64
2022-11-04T02:13:19.573Z,24.66
2022-11-04T02:13:50.982Z,24.68
2022-11-04T02:14:22.416Z,24.68
2022-11-04T02:14:53.827Z,24.68
2022-11-04T02:15:25.187Z,24.68
2022-11-04T02:15:56.577Z,24.66
2022-11-04T02:16:28.025Z,24.66
2022-11-04T02:16:59.401Z,24.65
2022-11-04T02:17:30.829Z,24.64
2022-11-04T02:18:02.222Z,24.65
2022-11-04T02:18:33.745Z,24.62
2022-11-04T02:19:05.162Z,24.63
2022-11-04T02:19:36.579Z,24.62
2022-11-04T02:20:08.049Z,24.60
2022-11-04T02:20:39.451Z,24.62
2022-11-04T02:21:10.904Z,24.57
2022-11-04T02:21:42.352Z,24.58
2022-11-04T02:22:13.764Z,24.60
2022-11-04T02:22:45.161Z,24.64
2022-11-04T02:23:16.574Z,24.66
2022-11-04T02:23:47.988Z,24.61
2022-11-04T02:24:19.496Z,24.64
2022-11-04T02:24:50.926Z,24.60
2022-11-04T02:25:22.371Z,24.62
2022-11-04T02:25:53.831Z,24.60
2022-11-04T02:26:25.305Z,24.60
2022-11-04T02:26:56.702Z,24.63
2022-11-04T02:27:28.169Z,24.64
2022-11-04T02:28:00.844Z,24.65
2022-11-04T02:28:32.303Z,24.66
2022-11-04T02:29:03.674Z,24.64
2022-11-04T02:29:35.091Z,24.66
2022-11-04T02:30:06.474Z,24.65
2022-11-04T02:30:37.875Z,24.65
2022-11-04T02:31:09.333Z,24.66
2022-11-04T02:31:40.742Z,24.67
2022-11-04T02:32:12.155Z,24.70
2022-11-04T02:32:43.569Z,24.72
2022-11-04T02:33:14.955Z,24.73
2022-11-04T02:33:46.342Z,24.73
2022-11-04T02:34:17.825Z,24.76
2022-11-04T02:34:49.241Z,24.71
2022-11-04T02:35:20.638Z,24.74
2022-11-04T02:35:52.003Z,24.76
2022-11-04T02:36:23.462Z,24.75
2022-11-04T02:36:54.847Z,24.72
2022-11-04T02:37:26.267Z,24.70
2022-11-04T02:37:57.694Z,24.67
2022-11-04T02:38:29.113Z,24.66
2022-11-04T02:39:00.506Z,24.66
2022-11-04T02:39:31.973Z,24.65
2022-11-04T02:40:03.519Z,24.70
2022-11-04T02:40:35.325Z,24.69
2022-11-04T02:41:06.796Z,24.69
2022-11-04T02:41:38.242Z,24.64
2022-11-04T02:42:09.606Z,24.60
2022-11-04T02:42:41.022Z,24.59
2022-11-04T02:43:12.562Z,24.60
2022-11-04T02:43:43.950Z,24.61
2022-11-04T02:44:15.426Z,24.60
2022-11-04T02:44:46.854Z,24.63
2022-11-04T02:45:18.321Z,24.66
2022-11-04T02:45:49.783Z,24.65
2022-11-04T02:46:21.284Z,24.67
2022-11-04T02:46:52.686Z,24.71
2022-11-04T02:47:24.118Z,24.63
2022-11-04T02:47:55.528Z,24.62
2022-11-04T02:48:26.941Z,24.62
2022-11-04T02:48:58.325Z,24.64
2022-11-04T02:49:29.723Z,24.59
2022-11-04T02:50:01.111Z,24.56
2022-11-04T02:50:32.490Z,24.54
2022-11-04T02:51:06.405Z,24.48
2022-11-04T02:51:37.842Z,24.53
2022-11-04T02:52:09.222Z,24.54
2022-11-04T02:52:40.628Z,24.56
2022-11-04T02:53:12.141Z,24.59
2022-11-04T02:53:43.658Z,24.58
2022-11-04T02:54:15.054Z,24.63
2022-11-04T02:54:46.496Z,24.65
2022-11-04T02:55:17.924Z,24.66
2022-11-04T02:55:49.344Z,24.65
2022-11-04T02:56:20.776Z,24.59
2022-11-04T02:56:52.244Z,24.57
2022-11-04T02:57:23.678Z,24.54
2022-11-04T02:57:55.116Z,24.55
2022-11-04T02:58:26.514Z,24.55
2022-11-04T02:58:57.904Z,24.59
2022-11-04T02:59:29.308Z,24.58
2022-11-04T03:00:00.680Z,24.50
2022-11-04T03:00:32.064Z,24.50
2022-11-04T03:01:03.644Z,24.49
2022-11-04T03:01:35.280Z,24.53
2022-11-04T03:02:06.908Z,24.55
2022-11-04T03:02:38.432Z,24.60
2022-11-04T03:03:10.373Z,24.61
2022-11-04T03:03:42.015Z,24.64
2022-11-04T03:04:13.472Z,24.62
2022-11-04T03:04:44.866Z,24.60
2022-11-04T03:05:16.230Z,24.61
2022-11-04T03:05:47.652Z,24.62
2022-11-04T03:06:19.098Z,24.62
2022-11-04T03:06:50.507Z,24.68
2022-11-04T03:07:21.893Z,24.67
2022-11-04T03:07:53.317Z,24.66
2022-11-04T03:08:24.747Z,24.66
2022-11-04T03:08:56.175Z,24.63
2022-11-04T03:09:27.561Z,24.65
2022-11-04T03:09:59.069Z,24.70
2022-11-04T03:10:30.439Z,24.72
2022-11-04T03:11:01.872Z,24.73
2022-11-04T03:11:33.349Z,24.67
2022-11-04T03:12:04.827Z,24.68
2022-11-04T03:12:36.282Z,24.62
2022-11-04T03:13:07.632Z,24.60
2022-11-04T03:13:39.044Z,24.59
2022-11-04T03:14:10.471Z,24.62
2022-11-04T03:14:41.882Z,24.61
2022-11-04T03:15:13.307Z,24.63
2022-11-04T03:15:44.703Z,24.65
2022-11-04T03:16:16.171Z,24.62
2022-11-04T03:16:47.623Z,24.56
2022-11-04T03:17:19.106Z,24.59
2022-11-04T03:17:50.644Z,24.60
2022-11-04T03:18:22.043Z,24.60
2022-11-04T03:18:53.537Z,24.62
2022-11-04T03:19:24.943Z,24.64
2022-11-04T03:19:56.370Z,24.66
2022-11-04T03:20:27.750Z,24.64
2022-11-04T03:20:59.133Z,24.62
2022-11-04T03:21:30.559Z,24.65
2022-11-04T03:22:01.996Z,24.62
2022-11-04T03:22:33.455Z,24.63
2022-11-04T03:23:04.834Z,24.64
2022-11-04T03:23:36.236Z,24.63
2022-11-04T03:24:07.662Z,24.65
2022-11-04T03:24:39.070Z,24.61
2022-11-04T03:25:10.485Z,24.61
2022-11-04T03:25:41.917Z,24.63
2022-11-04T03:26:13.352Z,24.66
2022-11-04T03:26:44.825Z,24.67
2022-11-04T03:27:16.293Z,24.65
2022-11-04T03:27:47.696Z,24.66
2022-11-04T03:28:19.103Z,24.65
2022-11-04T03:28:50.539Z,24.65
2022-11-04T03:29:21.960Z,24.62
2022-11-04T03:29:53.416Z,24.61
2022-11-04T03:30:24.896Z,24.59
2022-11-04T03:30:56.352Z,24.64
2022-11-04T03:31:27.791Z,24.54
2022-11-04T03:31:59.322Z,24.57
2022-11-04T03:32:30.760Z,24.55
2022-11-04T03:33:02.187Z,24.52
2022-11-04T03:33:33.762Z,24.56
2022-11-04T03:34:05.205Z,24.53
2022-11-04T03:34:36.626Z,24.45
2022-11-04T03:35:08.022Z,24.48
2022-11-04T03:35:39.473Z,24.49
2022-11-04T03:36:10.869Z,24.48
2022-11-04T03:36:42.268Z,24.53
2022-11-04T03:37:13.771Z,24.52
2022-11-04T03:37:45.261Z,24.56
2022-11-04T03:38:16.617Z,24.53
2022-11-04T03:38:48.110Z,24.52
2022-11-04T03:39:19.513Z,24.48
2022-11-04T03:39:50.948Z,24.49
2022-11-04T03:40:22.342Z,24.56
2022-11-04T03:40:53.797Z,24.57
2022-11-04T03:41:25.194Z,24.58
2022-11-04T03:41:56.619Z,24.60
2022-11-04T03:42:28.113Z,24.60
2022-11-04T03:42:59.501Z,24.61
2022-11-04T03:43:30.953Z,24.62
2022-11-04T03:44:02.435Z,24.64
2022-11-04T03:44:33.835Z,24.63
2022-11-04T03:45:05.229Z,24.66
2022-11-04T03:45:36.649Z,24.60
2022-11-04T03:46:08.026Z,24.61
2022-11-04T03:46:39.489Z,24.60
2022-11-04T03:47:10.923Z,24.64
2022-11-04T03:47:42.347Z,24.65
2022-11-04T03:48:13.808Z,24.61
2022-11-04T03:48:45.242Z,24.63
2022-11-04T03:49:16.734Z,24.63
2022-11-04T03:49:48.170Z,24.60
2022-11-04T03:50:19.582Z,24.61
2022-11-04T03:50:50.980Z,24.58
2022-11-04T03:51:22.486Z,24.59
2022-11-04T03:51:53.933Z,24.56
2022-11-04T03:52:25.399Z,24.52
2022-11-04T03:52:56.833Z,24.47
2022-11-04T03:53:28.302Z,24.48
2022-11-04T03:53:59.879Z,24.51
2022-11-04T03:54:31.232Z,24.51
2022-11-04T03:55:02.644Z,24.50
2022-11-04T03:55:34.038Z,24.49
2022-11-04T03:56:05.474Z,24.53
2022-11-04T03:56:36.957Z,24.47
2022-11-04T03:57:08.337Z,24.45
2022-11-04T03:57:39.779Z,24.45
2022-11-04T03:58:11.397Z,24.44
2022-11-04T03:58:43.050Z,24.43
2022-11-04T03:59:14.443Z,24.46
2022-11-04T03:59:45.930Z,24.40
2022-11-04T04:00:17.331Z,24.40
2022-11-04T04:00:48.816Z,24.42
2022-11-04T04:01:20.342Z,24.42
2022-11-04T04:01:52.001Z,24.48
2022-11-04T04:02:23.451Z,24.48
2022-11-04T04:02:54.866Z,24.51
2022-11-04T04:03:26.274Z,24.52
2022-11-04T04:03:57.683Z,24.54
2022-11-04T04:04:29.183Z,24.52
2022-11-04T04:05:00.659Z,24.52
2022-11-04T04:05:32.086Z,24.53
2022-11-04T04:06:03.531Z,24.51
2022-11-04T04:06:34.993Z,24.56
2022-11-04T04:07:06.442Z,24.57
2022-11-04T04:07:37.817Z,24.60
2022-11-04T04:08:09.559Z,24.58
2022-11-04T04:08:41.343Z,24.58
2022-11-04T04:09:12.726Z,24.56
2022-11-04T04:09:44.082Z,24.60
2022-11-04T04:10:15.468Z,24.56
2022-11-04T04:10:46.838Z,24.59
2022-11-04T04:11:18.263Z,24.59
2022-11-04T04:11:49.668Z,24.58
2022-11-04T04:12:21.139Z,24.60
2022-11-04T04:12:52.647Z,24.57
2022-11-04T04:13:24.035Z,24.59
2022-11-04T04:13:55.440Z,24.54
2022-11-04T04:14:26.887Z,24.57
2022-11-04T04:14:58.290Z,24.56
2022-11-04T04:15:29.772Z,24.57
2022-11-04T04:16:01.169Z,24.50
2022-11-04T04:16:32.597Z,24.45
2022-11-04T04:17:04.071Z,24.46
2022-11-04T04:17:35.506Z,24.48
2022-11-04T04:18:07.287Z,24.48
2022-11-04T04:18:39.068Z,24.48
2022-11-04T04:19:10.500Z,24.47
2022-11-04T04:19:41.936Z,24.51
2022-11-04T04:20:13.374Z,24.50
2022-11-04T04:20:44.753Z,24.48
2022-11-04T04:21:16.115Z,24.47
2022-11-04T04:21:47.518Z,24.52
2022-11-04T04:22:18.899Z,24.53
2022-11-04T04:22:50.384Z,24.47
2022-11-04T04:23:21.814Z,24.50
2022-11-04T04:23:53.248Z,24.46
2022-11-04T04:24:24.753Z,24.43
2022-11-04T04:24:56.198Z,24.45
2022-11-04T04:25:27.620Z,24.50
2022-11-04T04:25:59.005Z,24.48
2022-11-04T04:26:30.483Z,24.48
2022-11-04T04:27:01.882Z,24.45
2022-11-04T04:27:33.301Z,24.45
2022-11-04T04:28:04.786Z,24.38
2022-11-04T04:28:36.183Z,24.42
2022-11-04T04:29:07.576Z,24.43
2022-11-04T04:29:39.010Z,24.41
2022-11-04T04:30:10.440Z,24.42
2022-11-04T04:30:41.839Z,24.40
2022-11-04T04:31:13.239Z,24.39
2022-11-04T04:31:44.796Z,24.35
2022-11-04T04:32:16.244Z,24.38
2022-11-04T04:32:47.686Z,24.41
2022-11-04T04:33:19.168Z,24.37
2022-11-04T04:33:50.546Z,24.41
2022-11-04T04:34:22.017Z,24.42
2022-11-04T04:34:53.399Z,24.45
2022-11-04T04:35:24.790Z,24.41
2022-11-04T04:35:56.200Z,24.44
2022-11-04T04:36:27.589Z,24.38
2022-11-04T04:36:58.955Z,24.41
2022-11-04T04:37:30.384Z,24.36
2022-11-04T04:38:01.779Z,24.36
2022-11-04T04:38:33.423Z,24.38
2022-11-04T04:39:04.824Z,24.36
2022-11-04T04:39:36.263Z,24.37
2022-11-04T04:40:07.697Z,24.34
2022-11-04T04:40:39.143Z,24.37
2022-11-04T04:41:10.575Z,24.39
2022-11-04T04:41:41.962Z,24.36
2022-11-04T04:42:13.405Z,24.41
2022-11-04T04:42:44.822Z,24.46
2022-11-04T04:43:16.212Z,24.44
2022-11-04T04:43:47.732Z,24.42
2022-11-04T04:44:19.134Z,24.43
2022-11-04T04:44:50.521Z,24.40
2022-11-04T04:45:21.903Z,24.37
2022-11-04T04:45:53.332Z,24.37
2022-11-04T04:46:24.828Z,24.40
2022-11-04T04:46:56.246Z,24.36
2022-11-04T04:47:27.717Z,24.33
2022-11-04T04:47:59.159Z,24.33
2022-11-04T04:48:30.602Z,24.32
2022-11-04T04:49:02.074Z,24.31
2022-11-04T04:49:33.646Z,24.34
2022-11-04T04:50:05.084Z,24.38
2022-11-04T04:50:36.476Z,24.34
2022-11-04T04:51:07.992Z,24.31
2022-11-04T04:51:39.388Z,24.35
2022-11-04T04:52:10.802Z,24.37
2022-11-04T04:52:42.199Z,24.36
2022-11-04T04:53:13.597Z,24.33
2022-11-04T04:53:44.945Z,24.36
2022-11-04T04:54:16.402Z,24.33
2022-11-04T04:54:47.821Z,24.35
2022-11-04T04:55:19.302Z,24.37
2022-11-04T04:55:50.774Z,24.36
2022-11-04T04:56:22.238Z,24.35
2022-11-04T04:56:53.616Z,24.35
2022-11-04T04:57:25.077Z,24.32
2022-11-04T04:57:56.569Z,24.31
2022-11-04T04:58:27.980Z,24.34
2022-11-04T04:58:59.430Z,24.34
2022-11-04T04:59:30.872Z,24.37
2022-11-04T05:00:02.381Z,24.37
2022-11-04T05:00:33.820Z,24.31
2022-11-04T05:01:05.307Z,24.32
2022-11-04T05:01:36.780Z,24.39
2022-11-04T05:02:08.447Z,24.36
2022-11-04T05:02:40.011Z,24.35
2022-11-04T05:03:11.887Z,24.32
2022-11-04T05:03:45.304Z,24.35
2022-11-04T05:04:16.925Z,24.30
2022-11-04T05:04:48.427Z,24.28
2022-11-04T05:05:19.927Z,24.33
2022-11-04T05:05:52.679Z,24.32
2022-11-04T05:06:26.538Z,24.33
2022-11-04T05:06:57.913Z,24.33
2022-11-04T05:07:29.487Z,24.39
2022-11-04T05:08:00.912Z,24.36
2022-11-04T05:08:32.353Z,24.34
2022-11-04T05:09:03.750Z,24.32
2022-11-04T05:09:35.153Z,24.35
2022-11-04T05:10:06.539Z,24.35
2022-11-04T05:10:37.960Z,24.36
2022-11-04T05:11:09.365Z,24.35
2022-11-04T05:11:40.821Z,24.36
2022-11-04T05:12:12.387Z,24.34
2022-11-04T05:12:43.784Z,24.37
2022-11-04T05:13:15.234Z,24.34
2022-11-04T05:13:46.604Z,24.29
2022-11-04T05:14:18.033Z,24.29
2022-11-04T05:14:49.462Z,24.35
2022-11-04T05:15:20.869Z,24.28
2022-11-04T05:15:52.241Z,24.27
2022-11-04T05:16:23.658Z,24.28
2022-11-04T05:16:55.042Z,24.29
2022-11-04T05:17:26.473Z,24.33
2022-11-04T05:17:57.853Z,24.28
2022-11-04T05:18:29.324Z,24.32
2022-11-04T05:19:00.712Z,24.28
2022-11-04T05:19:32.118Z,24.27
2022-11-04T05:20:03.573Z,24.28
2022-11-04T05:20:35.004Z,24.31
2022-11-04T05:21:06.422Z,24.26
2022-11-04T05:21:37.821Z,24.28
2022-11-04T05:22:09.264Z,24.30
2022-11-04T05:22:40.726Z,24.32
2022-11-04T05:23:12.157Z,24.28
2022-11-04T05:23:43.601Z,24.30
2022-11-04T05:24:14.981Z,24.26
2022-11-04T05:24:46.380Z,24.26
2022-11-04T05:25:17.760Z,24.32
2022-11-04T05:25:49.144Z,24.32
2022-11-04T05:26:20.556Z,24.36
2022-11-04T05:26:52.068Z,24.33
2022-11-04T05:27:23.523Z,24.30
2022-11-04T05:27:54.914Z,24.32
2022-11-04T05:28:26.265Z,24.33
2022-11-04T05:28:57.671Z,24.26
2022-11-04T05:29:29.054Z,24.27
2022-11-04T05:30:00.490Z,24.30
2022-11-04T05:30:31.882Z,24.31
2022-11-04T05:31:03.298Z,24.35
2022-11-04T05:31:34.685Z,24.25
2022-11-04T05:32:06.244Z,24.26
2022-11-04T05:32:37.706Z,24.28
2022-11-04T05:33:09.290Z,24.29
2022-11-04T05:33:40.861Z,24.23
2022-11-04T05:34:12.253Z,24.22
2022-11-04T05:34:43.728Z,24.23
2022-11-04T05:35:15.147Z,24.23
2022-11-04T05:35:46.638Z,24.18
2022-11-04T05:36:18.074Z,24.23
2022-11-04T05:36:49.670Z,24.25
2022-11-04T05:37:21.109Z,24.28
2022-11-04T05:37:52.651Z,24.29
2022-11-04T05:38:24.077Z,24.28
2022-11-04T05:38:55.525Z,24.24
2022-11-04T05:39:26.981Z,24.21
2022-11-04T05:39:58.458Z,24.20
2022-11-04T05:40:29.855Z,24.20
2022-11-04T05:41:01.333Z,24.22
2022-11-04T05:41:32.727Z,24.28
2022-11-04T05:42:04.122Z,24.26
2022-11-04T05:42:35.600Z,24.25
2022-11-04T05:43:07.222Z,24.28
2022-11-04T05:43:38.873Z,24.25
2022-11-04T05:44:10.260Z,24.26
2022-11-04T05:44:41.621Z,24.24
2022-11-04T05:45:13.071Z,24.25
2022-11-04T05:45:44.481Z,24.26
2022-11-04T05:46:15.932Z,24.24
2022-11-04T05:46:47.356Z,24.27
2022-11-04T05:47:18.763Z,24.23
2022-11-04T05:47:50.263Z,24.28
2022-11-04T05:48:21.639Z,24.30
2022-11-04T05:48:53.021Z,24.31
2022-11-04T05:49:24.445Z,24.30
2022-11-04T05:49:55.828Z,24.28
2022-11-04T05:50:27.219Z,24.29
2022-11-04T05:50:58.606Z,24.31
2022-11-04T05:51:30.017Z,24.29
2022-11-04T05:52:01.564Z,24.28
2022-11-04T05:52:32.927Z,24.28
2022-11-04T05:53:04.367Z,24.34
2022-11-04T05:53:35.767Z,24.28
2022-11-04T05:54:07.158Z,24.29
2022-11-04T05:54:38.588Z,24.27
2022-11-04T05:55:09.997Z,24.32
2022-11-04T05:55:41.424Z,24.30
2022-11-04T05:56:12.859Z,24.32
2022-11-04T05:56:44.266Z,24.31
2022-11-04T05:57:15.668Z,24.32
2022-11-04T05:57:47.100Z,24.29
2022-11-04T05:58:18.621Z,24.26
2022-11-04T05:58:50.030Z,24.26
2022-11-04T05:59:21.418Z,24.24
2022-11-04T05:59:53.013Z,24.26
2022-11-04T06:00:24.398Z,24.29
2022-11-04T06:00:55.774Z,24.30
2022-11-04T06:01:27.263Z,24.27
2022-11-04T06:01:58.876Z,24.28
2022-11-04T06:02:30.467Z,24.28
2022-11-04T06:03:02.060Z,24.26
2022-11-04T06:03:33.659Z,24.27
2022-11-04T06:04:05.163Z,24.28
2022-11-04T06:04:36.605Z,24.33
2022-11-04T06:05:08.102Z,24.30
2022-11-04T06:05:39.560Z,24.34
2022-11-04T06:06:11.062Z,24.32
2022-11-04T06:06:42.504Z,24.35
2022-11-04T06:07:13.921Z,24.37
2022-11-04T06:07:45.502Z,24.32
2022-11-04T06:08:16.939Z,24.36
2022-11-04T06:08:48.472Z,24.28
2022-11-04T06:09:20.024Z,24.28
2022-11-04T06:09:51.497Z,24.31
2022-11-04T06:10:22.874Z,24.31
2022-11-04T06:10:54.305Z,24.27
2022-11-04T06:11:25.782Z,24.31
2022-11-04T06:11:57.159Z,24.27
2022-11-04T06:12:28.562Z,24.30
2022-11-04T06:12:59.949Z,24.24
2022-11-04T06:13:31.385Z,24.21
2022-11-04T06:14:02.844Z,24.21
2022-11-04T06:14:34.246Z,24.24
2022-11-04T06:15:05.669Z,24.29
2022-11-04T06:15:37.087Z,24.28
2022-11-04T06:16:08.536Z,24.25
2022-11-04T06:16:40.030Z,24.21
2022-11-04T06:17:43.743Z,24.28
2022-11-04T06:18:15.135Z,24.21
2022-11-04T06:18:46.554Z,24.26
2022-11-04T06:19:18.033Z,24.26
2022-11-04T06:19:49.450Z,24.29
2022-11-04T06:20:20.893Z,24.32
2022-11-04T06:20:52.284Z,24.32
2022-11-04T06:21:23.739Z,24.28
2022-11-04T06:21:55.214Z,24.28
2022-11-04T06:22:26.686Z,24.30
2022-11-04T06:22:58.129Z,24.31
2022-11-04T06:23:29.572Z,24.31
2022-11-04T06:24:01.004Z,24.30
2022-11-04T06:24:32.530Z,24.29
2022-11-04T06:25:03.911Z,24.24
2022-11-04T06:25:35.303Z,24.25
2022-11-04T06:26:06.738Z,24.23
2022-11-04T06:26:38.133Z,24.19
2022-11-04T06:27:09.527Z,24.20
2022-11-04T06:27:40.976Z,24.19
2022-11-04T06:28:12.387Z,24.23
2022-11-04T06:28:43.852Z,24.21
2022-11-04T06:29:15.255Z,24.16
2022-11-04T06:29:46.728Z,24.23
2022-11-04T06:30:18.153Z,24.19
2022-11-04T06:30:49.593Z,24.20
2022-11-04T06:31:20.994Z,24.22
2022-11-04T06:31:52.401Z,24.21
2022-11-04T06:32:23.848Z,24.20
2022-11-04T06:32:55.365Z,24.23
2022-11-04T06:33:26.836Z,24.24
2022-11-04T06:33:58.265Z,24.23
2022-11-04T06:34:29.672Z,24.24
2022-11-04T06:35:01.111Z,24.23
2022-11-04T06:35:32.482Z,24.23
2022-11-04T06:36:03.931Z,24.23
2022-11-04T06:36:35.358Z,24.18
2022-11-04T06:37:06.788Z,24.22
2022-11-04T06:37:38.224Z,24.26
2022-11-04T06:38:10.032Z,24.27
2022-11-04T06:38:41.776Z,24.25
2022-11-04T06:39:13.197Z,24.25
2022-11-04T06:39:44.581Z,24.23
2022-11-04T06:40:16.029Z,24.26
2022-11-04T06:40:47.452Z,24.27
2022-11-04T06:41:18.821Z,24.28
2022-11-04T06:41:51.720Z,24.30
2022-11-04T06:42:23.629Z,24.32
2022-11-04T06:42:55.246Z,24.22
2022-11-04T06:43:26.903Z,24.27
2022-11-04T06:43:58.392Z,24.25
2022-11-04T06:44:29.901Z,24.26
2022-11-04T06:45:01.388Z,24.19
2022-11-04T06:45:32.853Z,24.18
2022-11-04T06:46:04.264Z,24.19